createdAt,value
2017-06-22T00:00:37.391Z,91.39
2017-06-22T00:01:37.376Z,90.71
2017-06-22T00:02:37.364Z,91.14
2017-06-22T00:03:37.684Z,91.09
2017-06-22T00:04:37.646Z,91.09
2017-06-22T00:05:37.378Z,90.52
2017-06-22T00:06:37.617Z,90.95
2017-06-22T00:07:37.616Z,90.75
2017-06-22T00:08:37.597Z,90.75
2017-06-22T00:09:37.293Z,90.61
2017-06-22T00:10:37.288Z,90.61
2017-06-22T00:11:37.660Z,90.71
2017-06-22T00:12:37.250Z,90.52
2017-06-22T00:13:37.275Z,90.66
2017-06-22T00:14:37.214Z,90.81
2017-06-22T00:15:37.624Z,90.91
2017-06-22T00:16:37.510Z,90.33
2017-06-22T00:17:37.234Z,90.75
2017-06-22T00:18:37.528Z,90.75
2017-06-22T00:19:37.521Z,90.52
2017-06-22T00:20:37.553Z,91
2017-06-22T00:21:37.495Z,91.77
2017-06-22T00:22:37.424Z,91.97
2017-06-22T00:23:37.429Z,92.02
2017-06-22T00:24:37.409Z,91.67
2017-06-22T00:25:37.412Z,92.21
2017-06-22T00:26:37.065Z,91.67
2017-06-22T00:27:37.369Z,92.25
2017-06-22T00:28:37.355Z,92.21
2017-06-22T00:29:37.346Z,92.89
2017-06-22T00:30:37.334Z,92.41
2017-06-22T00:31:37.018Z,92.79
2017-06-22T00:32:37.314Z,92.69
2017-06-22T00:33:37.284Z,92.55
2017-06-22T00:34:37.272Z,92.07
2017-06-22T00:35:37.271Z,91.87
2017-06-22T00:36:36.938Z,91.67
2017-06-22T00:37:37.237Z,91.29
2017-06-22T00:38:36.919Z,90.91
2017-06-22T00:39:37.203Z,91.09
2017-06-22T00:40:37.210Z,91.29
2017-06-22T00:41:37.191Z,91.29
2017-06-22T00:42:37.175Z,91.49
2017-06-22T00:43:36.856Z,91.19
2017-06-22T00:44:37.151Z,91.29
2017-06-22T00:45:36.834Z,91.39
2017-06-22T00:46:37.127Z,91.77
2017-06-22T00:47:37.122Z,91.49
2017-06-22T00:48:36.794Z,91.49
2017-06-22T00:49:37.094Z,91.77
2017-06-22T00:50:36.771Z,91.39
2017-06-22T00:51:37.077Z,91.58
2017-06-22T00:52:36.767Z,91.58
2017-06-22T00:53:37.041Z,91.67
2017-06-22T00:54:37.024Z,91.58
2017-06-22T00:55:37.014Z,91.58
2017-06-22T00:56:37.013Z,91.58
2017-06-22T00:57:36.996Z,91.87
2017-06-22T00:58:36.996Z,91.67
2017-06-22T00:59:36.963Z,91.58
2017-06-22T01:00:36.963Z,91.77
2017-06-22T01:01:36.641Z,91.67
2017-06-22T01:02:36.925Z,91.87
2017-06-22T01:03:36.611Z,91.77
2017-06-22T01:04:36.594Z,91.67
2017-06-22T01:05:36.899Z,91.77
2017-06-22T01:06:36.889Z,92.16
2017-06-22T01:07:36.864Z,91.87
2017-06-22T01:08:36.876Z,91.97
2017-06-22T01:09:36.534Z,92.45
2017-06-22T01:10:36.512Z,92.65
2017-06-22T01:11:36.825Z,92.74
2017-06-22T01:12:36.806Z,93.13
2017-06-22T01:13:36.482Z,92.89
2017-06-22T01:14:36.796Z,93.03
2017-06-22T01:15:36.883Z,92.93
2017-06-22T01:16:36.765Z,92.93
2017-06-22T01:17:36.434Z,92.83
2017-06-22T01:18:36.733Z,93.37
2017-06-22T01:19:36.410Z,93.47
2017-06-22T01:20:36.405Z,93.66
2017-06-22T01:21:36.387Z,93.08
2017-06-22T01:22:36.682Z,93.47
2017-06-22T01:23:36.362Z,93.18
2017-06-22T01:24:36.647Z,93.76
2017-06-22T01:25:36.344Z,93.47
2017-06-22T01:26:36.636Z,93.27
2017-06-22T01:27:36.622Z,93.56
2017-06-22T01:28:36.605Z,93.56
2017-06-22T01:29:36.287Z,93.66
2017-06-22T01:30:36.274Z,93.47
2017-06-22T01:31:36.262Z,93.18
2017-06-22T01:32:36.572Z,93.27
2017-06-22T01:33:36.553Z,93.37
2017-06-22T01:34:36.541Z,93.27
2017-06-22T01:35:36.526Z,93.47
2017-06-22T01:36:36.503Z,93.37
2017-06-22T01:37:36.192Z,92.98
2017-06-22T01:38:36.181Z,93.27
2017-06-22T01:39:36.155Z,93.18
2017-06-22T01:40:36.148Z,93.47
2017-06-22T01:41:36.451Z,93.37
2017-06-22T01:42:36.433Z,93.37
2017-06-22T01:43:36.423Z,93.08
2017-06-22T01:44:36.415Z,93.08
2017-06-22T01:45:36.090Z,93.66
2017-06-22T01:46:36.374Z,93.56
2017-06-22T01:47:36.057Z,93.18
2017-06-22T01:48:36.383Z,93.08
2017-06-22T01:49:36.357Z,93.08
2017-06-22T01:50:36.026Z,93.08
2017-06-22T01:51:36.313Z,93.08
2017-06-22T01:52:36.001Z,93.18
2017-06-22T01:53:36.293Z,94
2017-06-22T01:54:35.974Z,93.8
2017-06-22T01:55:36.264Z,93.95
2017-06-22T01:56:36.265Z,93.66
2017-06-22T01:57:36.242Z,93.85
2017-06-22T01:58:36.243Z,93.85
2017-06-22T01:59:35.910Z,93.85
2017-06-22T02:00:36.214Z,94.1
2017-06-22T02:01:36.206Z,93.95
2017-06-22T02:02:35.873Z,93.66
2017-06-22T02:03:36.170Z,93.85
2017-06-22T02:04:36.151Z,93.95
2017-06-22T02:05:36.156Z,94.34
2017-06-22T02:06:36.123Z,94.04
2017-06-22T02:07:36.118Z,94.04
2017-06-22T02:08:36.107Z,94.34
2017-06-22T02:09:36.093Z,94.34
2017-06-22T02:10:36.080Z,94.43
2017-06-22T02:11:36.073Z,94.96
2017-06-22T02:12:36.058Z,94.82
2017-06-22T02:13:36.035Z,95.11
2017-06-22T02:14:36.029Z,94.87
2017-06-22T02:15:36.013Z,94.58
2017-06-22T02:16:36.013Z,95.25
2017-06-22T02:17:35.680Z,95.25
2017-06-22T02:18:35.981Z,94.77
2017-06-22T02:19:35.956Z,95.45
2017-06-22T02:20:35.966Z,95.16
2017-06-22T02:21:35.972Z,95.45
2017-06-22T02:22:35.936Z,95.06
2017-06-22T02:23:35.661Z,95.16
2017-06-22T02:24:35.904Z,95.16
2017-06-22T02:25:35.891Z,95.74
2017-06-22T02:26:35.865Z,95.93
2017-06-22T02:27:35.552Z,95.64
2017-06-22T02:28:35.836Z,95.83
2017-06-22T02:29:35.932Z,95.35
2017-06-22T02:30:35.517Z,95.64
2017-06-22T02:31:35.580Z,95.64
2017-06-22T02:32:35.482Z,95.45
2017-06-22T02:33:35.872Z,95.64
2017-06-22T02:34:35.764Z,95.45
2017-06-22T02:35:35.453Z,95.45
2017-06-22T02:36:35.739Z,95.74
2017-06-22T02:37:35.730Z,95.83
2017-06-22T02:38:35.712Z,96.12
2017-06-22T02:39:35.404Z,95.64
2017-06-22T02:40:35.695Z,95.93
2017-06-22T02:41:35.695Z,96.03
2017-06-22T02:42:35.355Z,95.93
2017-06-22T02:43:35.702Z,95.93
2017-06-22T02:44:35.646Z,96.03
2017-06-22T02:45:35.685Z,96.12
2017-06-22T02:46:35.624Z,95.83
2017-06-22T02:47:35.652Z,96.56
2017-06-22T02:48:35.638Z,96.75
2017-06-22T02:49:35.582Z,96.31
2017-06-22T02:50:35.612Z,96.31
2017-06-22T02:51:35.555Z,96.27
2017-06-22T02:52:35.553Z,96.31
2017-06-22T02:53:35.527Z,96.36
2017-06-22T02:54:35.192Z,96.46
2017-06-22T02:55:35.190Z,96.36
2017-06-22T02:56:35.174Z,96.89
2017-06-22T02:57:35.163Z,97.04
2017-06-22T02:58:35.152Z,98
2017-06-22T02:59:35.452Z,98.44
2017-06-22T03:00:35.432Z,98.82
2017-06-22T03:01:35.110Z,98.82
2017-06-22T03:02:35.097Z,98.92
2017-06-22T03:03:35.081Z,99.3
2017-06-22T03:04:35.068Z,99.88
2017-06-22T03:05:35.363Z,99.74
2017-06-22T03:06:35.354Z,99.99
2017-06-22T03:07:35.021Z,99.99
2017-06-22T03:08:35.324Z,99.99
2017-06-22T03:09:35.008Z,99.99
2017-06-22T03:10:35.311Z,99.99
2017-06-22T03:11:35.290Z,99.99
2017-06-22T03:12:35.262Z,99.99
2017-06-22T03:13:35.253Z,99.99
2017-06-22T03:14:35.249Z,99.74
2017-06-22T03:15:34.925Z,99.74
2017-06-22T03:16:34.900Z,99.99
2017-06-22T03:17:35.203Z,99.99
2017-06-22T03:18:34.880Z,99.99
2017-06-22T03:19:35.182Z,99.99
2017-06-22T03:20:35.163Z,99.99
2017-06-22T03:21:34.831Z,99.45
2017-06-22T03:22:35.131Z,99.35
2017-06-22T03:23:35.123Z,99.79
2017-06-22T03:24:35.103Z,99.74
2017-06-22T03:25:35.092Z,99.64
2017-06-22T03:26:35.072Z,99.5
2017-06-22T03:27:34.752Z,99.5
2017-06-22T03:28:35.056Z,99.21
2017-06-22T03:29:35.030Z,99.4
2017-06-22T03:30:35.024Z,99.98
2017-06-22T03:31:35.005Z,99.3
2017-06-22T03:32:34.691Z,99.4
2017-06-22T03:33:34.977Z,99.99
2017-06-22T03:34:34.962Z,99.99
2017-06-22T03:35:34.951Z,99.99
2017-06-22T03:36:34.631Z,99.99
2017-06-22T03:37:34.932Z,99.99
2017-06-22T03:38:34.909Z,99.99
2017-06-22T03:39:34.900Z,99.99
2017-06-22T03:40:34.882Z,99.99
2017-06-22T03:41:34.861Z,99.99
2017-06-22T03:42:34.554Z,99.99
2017-06-22T03:43:34.842Z,99.99
2017-06-22T03:44:34.827Z,99.99
2017-06-22T03:45:34.811Z,99.99
2017-06-22T03:46:34.798Z,99.99
2017-06-22T03:47:34.791Z,99.99
2017-06-22T03:48:34.769Z,99.99
2017-06-22T03:49:34.779Z,99.99
2017-06-22T03:50:34.443Z,99.99
2017-06-22T03:51:34.422Z,99.99
2017-06-22T03:52:34.724Z,99.99
2017-06-22T03:53:34.701Z,99.99
2017-06-22T03:54:34.684Z,99.99
2017-06-22T03:55:34.673Z,99.99
2017-06-22T03:56:34.663Z,99.99
2017-06-22T03:57:34.340Z,99.99
2017-06-22T03:58:34.633Z,99.99
2017-06-22T03:59:34.611Z,99.99
2017-06-22T04:00:34.609Z,99.99
2017-06-22T04:01:34.593Z,99.99
2017-06-22T04:02:34.590Z,99.99
2017-06-22T04:03:34.567Z,99.99
2017-06-22T04:04:34.550Z,99.99
2017-06-22T04:05:34.221Z,99.99
2017-06-22T04:06:34.526Z,99.99
2017-06-22T04:07:34.205Z,99.99
2017-06-22T04:08:34.197Z,99.99
2017-06-22T04:09:34.175Z,99.99
2017-06-22T04:10:34.163Z,99.99
2017-06-22T04:11:34.453Z,99.99
2017-06-22T04:12:34.442Z,99.99
2017-06-22T04:13:34.419Z,99.99
2017-06-22T04:14:34.416Z,99.99
2017-06-22T04:15:34.390Z,99.99
2017-06-22T04:16:34.078Z,99.99
2017-06-22T04:17:34.373Z,99.99
2017-06-22T04:18:34.355Z,99.99
2017-06-22T04:19:34.342Z,99.99
2017-06-22T04:20:34.022Z,99.99
2017-06-22T04:21:34.317Z,99.99
2017-06-22T04:22:34.002Z,99.99
2017-06-22T04:23:34.301Z,99.99
2017-06-22T04:24:34.273Z,99.99
2017-06-22T04:25:34.273Z,99.99
2017-06-22T04:26:34.252Z,99.99
2017-06-22T04:27:34.228Z,99.99
2017-06-22T04:28:34.212Z,99.99
2017-06-22T04:29:34.202Z,99.99
2017-06-22T04:30:34.203Z,99.99
2017-06-22T04:31:33.880Z,99.99
2017-06-22T04:32:34.165Z,99.99
2017-06-22T04:33:34.166Z,99.99
2017-06-22T04:34:33.833Z,99.99
2017-06-22T04:35:34.122Z,99.99
2017-06-22T04:36:33.807Z,99.99
2017-06-22T04:37:34.113Z,99.99
2017-06-22T04:38:33.782Z,99.99
2017-06-22T04:39:34.074Z,99.99
2017-06-22T04:40:33.757Z,99.99
2017-06-22T04:41:34.053Z,99.99
2017-06-22T04:42:34.025Z,99.99
2017-06-22T04:43:33.709Z,99.99
2017-06-22T04:44:34.015Z,99.99
2017-06-22T04:45:33.685Z,99.99
2017-06-22T04:46:33.682Z,99.99
2017-06-22T04:47:33.973Z,99.99
2017-06-22T04:48:33.642Z,99.99
2017-06-22T04:49:33.951Z,99.99
2017-06-22T04:50:33.923Z,99.99
2017-06-22T04:51:33.914Z,99.99
2017-06-22T04:52:33.901Z,99.99
2017-06-22T04:53:33.890Z,99.99
2017-06-22T04:54:33.869Z,99.99
2017-06-22T04:55:33.855Z,99.99
2017-06-22T04:56:33.841Z,99.99
2017-06-22T04:57:33.590Z,99.99
2017-06-22T04:58:33.829Z,99.99
2017-06-22T04:59:33.823Z,99.99
2017-06-22T05:00:33.797Z,99.99
2017-06-22T05:01:33.792Z,99.99
2017-06-22T05:02:33.475Z,99.99
2017-06-22T05:03:33.448Z,99.99
2017-06-22T05:04:33.743Z,99.99
2017-06-22T05:05:33.743Z,99.99
2017-06-22T05:06:33.714Z,99.99
2017-06-22T05:07:33.743Z,99.99
2017-06-22T05:08:33.690Z,99.99
2017-06-22T05:09:33.807Z,99.99
2017-06-22T05:10:33.670Z,99.99
2017-06-22T05:11:33.745Z,99.99
2017-06-22T05:12:33.342Z,99.99
2017-06-22T05:13:33.629Z,99.99
2017-06-22T05:14:33.625Z,99.99
2017-06-22T05:15:33.696Z,99.99
2017-06-22T05:16:33.593Z,99.99
2017-06-22T05:17:33.384Z,99.99
2017-06-22T05:18:33.558Z,99.99
2017-06-22T05:19:33.562Z,99.99
2017-06-22T05:20:33.234Z,99.99
2017-06-22T05:21:33.613Z,99.99
2017-06-22T05:22:33.513Z,99.99
2017-06-22T05:23:33.554Z,99.99
2017-06-22T05:24:33.198Z,99.99
2017-06-22T05:25:33.517Z,99.99
2017-06-22T05:26:33.464Z,99.99
2017-06-22T05:27:33.163Z,99.99
2017-06-22T05:28:33.444Z,99.99
2017-06-22T05:29:33.412Z,99.99
2017-06-22T05:30:33.454Z,99.99
2017-06-22T05:31:33.391Z,99.99
2017-06-22T05:32:33.082Z,99.99
2017-06-22T05:33:33.413Z,99.99
2017-06-22T05:34:33.361Z,99.99
2017-06-22T05:35:33.352Z,99.99
2017-06-22T05:36:33.325Z,99.99
2017-06-22T05:37:33.314Z,99.99
2017-06-22T05:38:33.314Z,99.99
2017-06-22T05:39:33.292Z,99.99
2017-06-22T05:40:33.284Z,99.99
2017-06-22T05:41:33.263Z,99.99
2017-06-22T05:42:33.332Z,99.99
2017-06-22T05:43:33.241Z,99.99
2017-06-22T05:44:33.281Z,99.99
2017-06-22T05:45:33.241Z,99.99
2017-06-22T05:46:33.193Z,99.99
2017-06-22T05:47:32.874Z,99.99
2017-06-22T05:48:33.171Z,99.65
2017-06-22T05:49:33.162Z,99.45
2017-06-22T05:50:32.833Z,99.41
2017-06-22T05:51:33.138Z,99.99
2017-06-22T05:52:32.820Z,99.21
2017-06-22T05:53:32.805Z,98.93
2017-06-22T05:54:33.093Z,98.54
2017-06-22T05:55:33.097Z,98.54
2017-06-22T05:56:32.760Z,98.93
2017-06-22T05:57:32.753Z,98.54
2017-06-22T05:58:32.732Z,98.15
2017-06-22T05:59:33.049Z,97.86
2017-06-22T06:00:33.036Z,98
2017-06-22T06:01:32.697Z,97.72
2017-06-22T06:02:32.989Z,97.33
2017-06-22T06:03:33.231Z,97.23
2017-06-22T06:04:32.972Z,96.94
2017-06-22T06:05:32.968Z,96.94
2017-06-22T06:06:32.962Z,96.75
2017-06-22T06:07:32.948Z,96.12
2017-06-22T06:08:32.920Z,95.83
2017-06-22T06:09:32.603Z,96.31
2017-06-22T06:10:32.907Z,96.6
2017-06-22T06:11:32.885Z,95.54
2017-06-22T06:12:32.870Z,95.93
2017-06-22T06:13:32.913Z,96.22
2017-06-22T06:14:32.849Z,96.12
2017-06-22T06:15:32.843Z,95.87
2017-06-22T06:16:32.524Z,95.59
2017-06-22T06:17:32.810Z,95.29
2017-06-22T06:18:32.804Z,94.91
2017-06-22T06:19:32.481Z,95.01
2017-06-22T06:20:32.790Z,95.01
2017-06-22T06:21:32.767Z,94.71
2017-06-22T06:22:32.767Z,94.71
2017-06-22T06:23:32.438Z,94.62
2017-06-22T06:24:32.732Z,94.62
2017-06-22T06:25:32.760Z,94.96
2017-06-22T06:26:32.406Z,94.28
2017-06-22T06:27:32.710Z,93.89
2017-06-22T06:28:32.704Z,93.89
2017-06-22T06:29:32.670Z,93.02
2017-06-22T06:30:32.366Z,92.97
2017-06-22T06:31:32.657Z,93.16
2017-06-22T06:32:32.335Z,93.16
2017-06-22T06:33:32.326Z,92.19
2017-06-22T06:34:32.318Z,91.9
2017-06-22T06:35:32.610Z,92.14
2017-06-22T06:36:32.607Z,91.95
2017-06-22T06:37:32.272Z,91.37
2017-06-22T06:38:32.612Z,91.27
2017-06-22T06:39:32.579Z,90.69
2017-06-22T06:40:32.552Z,90.11
2017-06-22T06:41:32.546Z,90.3
2017-06-22T06:42:32.532Z,90.16
2017-06-22T06:43:32.518Z,89.86
2017-06-22T06:44:32.507Z,89.76
2017-06-22T06:45:32.200Z,89.86
2017-06-22T06:46:32.507Z,89.28
2017-06-22T06:47:32.483Z,89.47
2017-06-22T06:48:32.477Z,88.89
2017-06-22T06:49:32.153Z,89.03
2017-06-22T06:50:32.147Z,88.35
2017-06-22T06:51:32.436Z,88.93
2017-06-22T06:52:32.131Z,88.35
2017-06-22T06:53:32.425Z,88.35
2017-06-22T06:54:32.415Z,88.74
2017-06-22T06:55:32.403Z,89.03
2017-06-22T06:56:32.391Z,88.55
2017-06-22T06:57:32.381Z,88.1
2017-06-22T06:58:32.062Z,87.91
2017-06-22T06:59:32.359Z,87.43
2017-06-22T07:00:32.347Z,87.13
2017-06-22T07:01:32.328Z,87.72
2017-06-22T07:02:32.315Z,86.89
2017-06-22T07:03:32.017Z,86.89
2017-06-22T07:04:32.310Z,86.3
2017-06-22T07:05:32.291Z,86.4
2017-06-22T07:06:32.306Z,85.92
2017-06-22T07:07:32.283Z,85.92
2017-06-22T07:08:31.963Z,85.33
2017-06-22T07:09:31.947Z,85.33
2017-06-22T07:10:32.251Z,85.38
2017-06-22T07:11:32.236Z,85.63
2017-06-22T07:12:32.238Z,84.99
2017-06-22T07:13:32.223Z,84.21
2017-06-22T07:14:32.223Z,84.41
2017-06-22T07:15:31.889Z,84.21
2017-06-22T07:16:32.200Z,83.72
2017-06-22T07:17:32.199Z,83.67
2017-06-22T07:18:32.178Z,83.86
2017-06-22T07:19:32.159Z,83.76
2017-06-22T07:20:32.149Z,84.06
2017-06-22T07:21:32.151Z,83.76
2017-06-22T07:22:32.145Z,82.89
2017-06-22T07:23:31.826Z,82.79
2017-06-22T07:24:31.811Z,82.31
2017-06-22T07:25:32.172Z,81.82
2017-06-22T07:26:31.793Z,82.45
2017-06-22T07:27:32.194Z,82.15
2017-06-22T07:28:32.081Z,82.35
2017-06-22T07:29:31.839Z,82.35
2017-06-22T07:30:31.753Z,81.96
2017-06-22T07:31:32.052Z,82.06
2017-06-22T07:32:32.060Z,82.06
2017-06-22T07:33:32.043Z,82.2
2017-06-22T07:34:32.036Z,81.02
2017-06-22T07:35:32.026Z,80.83
2017-06-22T07:36:32.028Z,80.93
2017-06-22T07:37:31.710Z,80.74
2017-06-22T07:38:31.998Z,81.22
2017-06-22T07:39:31.980Z,81.16
2017-06-22T07:40:31.677Z,80.68
2017-06-22T07:41:31.974Z,80.25
2017-06-22T07:42:31.959Z,79.9
2017-06-22T07:43:31.950Z,80.19
2017-06-22T07:44:31.948Z,79.8
2017-06-22T07:45:31.627Z,79.25
2017-06-22T07:46:31.935Z,78.96
2017-06-22T07:47:31.918Z,79.25
2017-06-22T07:48:31.908Z,78.87
2017-06-22T07:49:31.918Z,78.96
2017-06-22T07:50:31.601Z,79.06
2017-06-22T07:51:31.883Z,78.96
2017-06-22T07:52:31.879Z,78.96
2017-06-22T07:53:31.564Z,78.77
2017-06-22T07:54:31.548Z,78.96
2017-06-22T07:55:31.868Z,78.58
2017-06-22T07:56:31.853Z,79.35
2017-06-22T07:57:31.529Z,78.61
2017-06-22T07:58:31.539Z,78.22
2017-06-22T07:59:31.829Z,77.73
2017-06-22T08:00:31.941Z,77.15
2017-06-22T08:01:31.510Z,77.25
2017-06-22T08:02:31.546Z,77.73
2017-06-22T08:03:31.479Z,77.29
2017-06-22T08:04:31.797Z,76.9
2017-06-22T08:05:31.776Z,76.31
2017-06-22T08:06:31.780Z,76.12
2017-06-22T08:07:31.469Z,76.15
2017-06-22T08:08:31.761Z,76.06
2017-06-22T08:09:31.444Z,76.35
2017-06-22T08:10:31.842Z,75.99
2017-06-22T08:11:31.438Z,75.7
2017-06-22T08:12:31.526Z,75.31
2017-06-22T08:13:31.416Z,75.31
2017-06-22T08:14:31.433Z,75.02
2017-06-22T08:15:31.707Z,74.83
2017-06-22T08:16:31.704Z,74.63
2017-06-22T08:17:31.386Z,74.63
2017-06-22T08:18:31.700Z,74.44
2017-06-22T08:19:31.682Z,74.93
2017-06-22T08:20:31.370Z,75.31
2017-06-22T08:21:31.676Z,75.21
2017-06-22T08:22:31.356Z,75.8
2017-06-22T08:23:31.346Z,75.99
2017-06-22T08:24:31.657Z,74.83
2017-06-22T08:25:31.325Z,75.02
2017-06-22T08:26:31.340Z,74.57
2017-06-22T08:27:31.329Z,75.05
2017-06-22T08:28:31.321Z,74.38
2017-06-22T08:29:31.614Z,74.32
2017-06-22T08:30:31.613Z,73.83
2017-06-22T08:31:31.614Z,73.73
2017-06-22T08:32:31.596Z,74.02
2017-06-22T08:33:31.593Z,73.83
2017-06-22T08:34:31.577Z,73.86
2017-06-22T08:35:31.572Z,72.59
2017-06-22T08:36:31.579Z,73.08
2017-06-22T08:37:31.569Z,72.49
2017-06-22T08:38:31.553Z,72.39
2017-06-22T08:39:31.553Z,72.2
2017-06-22T08:40:31.250Z,72.14
2017-06-22T08:41:31.673Z,72.53
2017-06-22T08:42:31.549Z,71.84
2017-06-22T08:43:31.321Z,71.06
2017-06-22T08:44:31.527Z,71.69
2017-06-22T08:45:31.589Z,70.9
2017-06-22T08:46:31.502Z,71.1
2017-06-22T08:47:31.241Z,71.23
2017-06-22T08:48:31.499Z,71.23
2017-06-22T08:49:31.569Z,70.78
2017-06-22T08:50:31.481Z,70.39
2017-06-22T08:51:31.473Z,70.09
2017-06-22T08:52:31.520Z,69.73
2017-06-22T08:53:31.474Z,70.19
2017-06-22T08:54:31.461Z,69.73
2017-06-22T08:55:31.145Z,68.85
2017-06-22T08:56:31.139Z,69.83
2017-06-22T08:57:31.135Z,68.95
2017-06-22T08:58:31.440Z,69.15
2017-06-22T08:59:31.442Z,69.08
2017-06-22T09:00:31.448Z,69.27
2017-06-22T09:01:31.116Z,68.33
2017-06-22T09:02:31.113Z,67.94
2017-06-22T09:03:31.414Z,68.1
2017-06-22T09:04:31.402Z,68.3
2017-06-22T09:05:31.401Z,68.79
2017-06-22T09:06:31.391Z,68.2
2017-06-22T09:07:31.393Z,68
2017-06-22T09:08:31.387Z,68.1
2017-06-22T09:09:31.392Z,68.1
2017-06-22T09:10:31.071Z,67.22
2017-06-22T09:11:31.395Z,68.13
2017-06-22T09:12:31.361Z,68.3
2017-06-22T09:13:31.375Z,67.55
2017-06-22T09:14:31.363Z,67.25
2017-06-22T09:15:31.362Z,67.09
2017-06-22T09:16:31.346Z,67.29
2017-06-22T09:17:31.037Z,67.29
2017-06-22T09:18:31.340Z,66.79
2017-06-22T09:19:31.341Z,66.43
2017-06-22T09:20:31.341Z,66.24
2017-06-22T09:21:31.320Z,66.33
2017-06-22T09:22:31.320Z,66.73
2017-06-22T09:23:31.418Z,66.47
2017-06-22T09:24:31.311Z,65.48
2017-06-22T09:25:31.363Z,65.68
2017-06-22T09:26:31.315Z,65.88
2017-06-22T09:27:31.304Z,65.48
2017-06-22T09:28:31.303Z,64.99
2017-06-22T09:29:31.294Z,65.09
2017-06-22T09:30:31.302Z,64.99
2017-06-22T09:31:31.295Z,64.92
2017-06-22T09:32:31.284Z,64.53
2017-06-22T09:33:31.285Z,65.32
2017-06-22T09:34:30.964Z,64.92
2017-06-22T09:35:31.279Z,63.95
2017-06-22T09:36:31.276Z,63.75
2017-06-22T09:37:31.267Z,64.34
2017-06-22T09:38:31.268Z,63.55
2017-06-22T09:39:31.267Z,63.65
2017-06-22T09:40:31.273Z,63.26
2017-06-22T09:41:30.951Z,63.84
2017-06-22T09:42:31.250Z,63.26
2017-06-22T09:43:31.244Z,63.19
2017-06-22T09:44:31.249Z,62.79
2017-06-22T09:45:31.252Z,62.34
2017-06-22T09:46:31.254Z,62.24
2017-06-22T09:47:31.231Z,62.14
2017-06-22T09:48:31.241Z,61.77
2017-06-22T09:49:31.236Z,61.58
2017-06-22T09:50:31.241Z,61.08
2017-06-22T09:51:30.925Z,60.99
2017-06-22T09:52:30.923Z,61.77
2017-06-22T09:53:30.930Z,60.82
2017-06-22T09:54:31.325Z,60.23
2017-06-22T09:55:31.224Z,59.54
2017-06-22T09:56:31.333Z,59.51
2017-06-22T09:57:31.242Z,59.91
2017-06-22T09:58:31.225Z,59.81
2017-06-22T09:59:31.226Z,59.61
2017-06-22T10:00:31.316Z,59.61
2017-06-22T10:01:31.222Z,59.97
2017-06-22T10:02:31.225Z,59.78
2017-06-22T10:03:31.232Z,60.47
2017-06-22T10:04:30.899Z,60.44
2017-06-22T10:05:31.221Z,60.93
2017-06-22T10:06:31.212Z,60.73
2017-06-22T10:07:31.217Z,61.03
2017-06-22T10:08:31.211Z,60.47
2017-06-22T10:09:31.220Z,61.03
2017-06-22T10:10:30.911Z,61.32
2017-06-22T10:11:31.210Z,61.42
2017-06-22T10:12:30.898Z,61.35
2017-06-22T10:13:31.214Z,60.76
2017-06-22T10:14:31.204Z,60.76
2017-06-22T10:15:31.203Z,60.76
2017-06-22T10:16:31.214Z,60.6
2017-06-22T10:17:31.204Z,60.69
2017-06-22T10:18:31.201Z,59.74
2017-06-22T10:19:31.202Z,60.03
2017-06-22T10:20:31.187Z,59.84
2017-06-22T10:21:31.237Z,60.72
2017-06-22T10:22:31.207Z,60.42
2017-06-22T10:23:31.200Z,60.13
2017-06-22T10:24:31.204Z,60.52
2017-06-22T10:25:31.273Z,60.52
2017-06-22T10:26:31.176Z,60.92
2017-06-22T10:27:31.171Z,60.63
2017-06-22T10:28:31.174Z,60.63
2017-06-22T10:29:31.200Z,60.63
2017-06-22T10:30:30.865Z,60.75
2017-06-22T10:31:31.177Z,60.65
2017-06-22T10:32:31.173Z,60.75
2017-06-22T10:33:31.171Z,59.7
2017-06-22T10:34:31.178Z,59.6
2017-06-22T10:35:31.178Z,59.7
2017-06-22T10:36:31.173Z,59.8
2017-06-22T10:37:31.161Z,60.41
2017-06-22T10:38:31.178Z,59.72
2017-06-22T10:39:31.164Z,60.25
2017-06-22T10:40:31.152Z,58.97
2017-06-22T10:41:31.161Z,59.56
2017-06-22T10:42:31.203Z,60.39
2017-06-22T10:43:31.155Z,59.99
2017-06-22T10:44:31.223Z,60.52
2017-06-22T10:45:31.155Z,61
2017-06-22T10:46:31.146Z,59.92
2017-06-22T10:47:30.852Z,60.78
2017-06-22T10:48:31.196Z,60.78
2017-06-22T10:49:31.153Z,60.98
2017-06-22T10:50:31.161Z,61.08
2017-06-22T10:51:30.834Z,61.57
2017-06-22T10:52:31.153Z,61.67
2017-06-22T10:53:31.146Z,61.87
2017-06-22T10:54:31.133Z,62.23
2017-06-22T10:55:31.129Z,62.23
2017-06-22T10:56:31.125Z,62.75
2017-06-22T10:57:30.833Z,62.09
2017-06-22T10:58:31.133Z,62.16
2017-06-22T10:59:31.145Z,62.75
2017-06-22T11:00:31.125Z,62.36
2017-06-22T11:01:31.124Z,62.26
2017-06-22T11:02:31.124Z,62.36
2017-06-22T11:03:30.805Z,62.16
2017-06-22T11:04:30.806Z,62.26
2017-06-22T11:05:30.813Z,62.95
2017-06-22T11:06:31.101Z,62.65
2017-06-22T11:07:31.113Z,62.36
2017-06-22T11:08:31.116Z,62.16
2017-06-22T11:09:30.805Z,62.68
2017-06-22T11:10:31.098Z,62.68
2017-06-22T11:11:31.101Z,62.49
2017-06-22T11:12:31.105Z,63.28
2017-06-22T11:13:31.097Z,62.09
2017-06-22T11:14:31.091Z,62.29
2017-06-22T11:15:31.097Z,62.22
2017-06-22T11:16:31.094Z,62.09
2017-06-22T11:17:31.083Z,62.29
2017-06-22T11:18:31.104Z,62.19
2017-06-22T11:19:31.064Z,62.49
2017-06-22T11:20:31.100Z,62.22
2017-06-22T11:21:30.764Z,62.38
2017-06-22T11:22:31.079Z,62.49
2017-06-22T11:23:31.064Z,62.49
2017-06-22T11:24:31.063Z,62.52
2017-06-22T11:25:31.078Z,62.59
2017-06-22T11:26:30.757Z,62.62
2017-06-22T11:27:30.757Z,61.99
2017-06-22T11:28:30.746Z,62.19
2017-06-22T11:29:31.054Z,62.49
2017-06-22T11:30:30.762Z,62.36
2017-06-22T11:31:31.044Z,62.62
2017-06-22T11:32:31.050Z,62.72
2017-06-22T11:33:31.051Z,62.92
2017-06-22T11:34:30.748Z,63.21
2017-06-22T11:35:31.049Z,63.02
2017-06-22T11:36:30.732Z,63.15
2017-06-22T11:37:31.051Z,63.15
2017-06-22T11:38:31.039Z,62.59
2017-06-22T11:39:30.731Z,63.15
2017-06-22T11:40:31.031Z,62.46
2017-06-22T11:41:30.719Z,62.95
2017-06-22T11:42:31.011Z,62.26
2017-06-22T11:43:30.711Z,62.16
2017-06-22T11:44:31.019Z,62.75
2017-06-22T11:45:31.028Z,62.59
2017-06-22T11:46:31.020Z,62.29
2017-06-22T11:47:31.019Z,61.99
2017-06-22T11:48:31.011Z,62.22
2017-06-22T11:49:31.019Z,62.32
2017-06-22T11:50:31.001Z,62.35
2017-06-22T11:51:31.003Z,61.66
2017-06-22T11:52:30.690Z,61.76
2017-06-22T11:53:31.010Z,61.96
2017-06-22T11:54:31.003Z,60.7
2017-06-22T11:55:30.990Z,60.41
2017-06-22T11:56:30.683Z,60.87
2017-06-22T11:57:31.029Z,61.07
2017-06-22T11:58:30.690Z,60.74
2017-06-22T11:59:30.990Z,59.98
2017-06-22T12:00:30.991Z,59.85
2017-06-22T12:01:30.687Z,60.35
2017-06-22T12:02:30.999Z,59.85
2017-06-22T12:03:30.983Z,59.39
2017-06-22T12:04:30.665Z,59.06
2017-06-22T12:05:30.975Z,59.46
2017-06-22T12:06:30.660Z,59.26
2017-06-22T12:07:30.669Z,59.66
2017-06-22T12:08:30.970Z,59.83
2017-06-22T12:09:30.657Z,60.02
2017-06-22T12:10:30.952Z,60.25
2017-06-22T12:11:30.961Z,59.85
2017-06-22T12:12:30.645Z,58.4
2017-06-22T12:13:30.956Z,59.36
2017-06-22T12:14:30.961Z,58.97
2017-06-22T12:15:30.955Z,58.77
2017-06-22T12:16:30.952Z,58.47
2017-06-22T12:17:30.634Z,59.06
2017-06-22T12:18:30.645Z,59.19
2017-06-22T12:19:30.935Z,59.88
2017-06-22T12:20:30.950Z,58.43
2017-06-22T12:21:30.938Z,58.23
2017-06-22T12:22:30.620Z,58.33
2017-06-22T12:23:30.941Z,57.47
2017-06-22T12:24:30.633Z,58.06
2017-06-22T12:25:30.628Z,58.04
2017-06-22T12:26:30.927Z,58.3
2017-06-22T12:27:30.622Z,58.67
2017-06-22T12:28:30.926Z,58.6
2017-06-22T12:29:30.927Z,58.37
2017-06-22T12:30:30.929Z,57.88
2017-06-22T12:31:30.928Z,57.59
2017-06-22T12:32:30.912Z,57.29
2017-06-22T12:33:30.927Z,56.9
2017-06-22T12:34:30.607Z,57.09
2017-06-22T12:35:30.911Z,56.9
2017-06-22T12:36:30.901Z,56.7
2017-06-22T12:37:30.897Z,56.9
2017-06-22T12:38:30.900Z,57.29
2017-06-22T12:39:30.892Z,57.19
2017-06-22T12:40:30.899Z,57.29
2017-06-22T12:41:30.895Z,56.9
2017-06-22T12:42:30.895Z,57.22
2017-06-22T12:43:30.902Z,57.51
2017-06-22T12:44:30.879Z,57.59
2017-06-22T12:45:30.880Z,58.18
2017-06-22T12:46:30.882Z,57.59
2017-06-22T12:47:30.879Z,57.98
2017-06-22T12:48:30.880Z,57.61
2017-06-22T12:49:30.879Z,57.22
2017-06-22T12:50:30.881Z,57.09
2017-06-22T12:51:30.878Z,57.09
2017-06-22T12:52:30.868Z,56.9
2017-06-22T12:53:30.861Z,56.3
2017-06-22T12:54:30.859Z,56.9